createdAt,value
2022-12-09T00:00:11.989Z,13.60
2022-12-09T00:02:40.907Z,13.80
2022-12-09T00:05:10.840Z,15.20
2022-12-09T00:07:39.633Z,15.53
2022-12-09T00:10:10.041Z,13.03
2022-12-09T00:12:40.279Z,14.63
2022-12-09T00:15:09.792Z,14.10
2022-12-09T00:17:38.763Z,13.60
2022-12-09T00:20:09.796Z,14.37
2022-12-09T00:22:38.466Z,14.00
2022-12-09T00:25:08.223Z,13.93
2022-12-09T00:27:37.017Z,13.37
2022-12-09T00:30:09.946Z,13.90
2022-12-09T00:32:39.064Z,13.87
2022-12-09T00:35:08.231Z,14.80
2022-12-09T00:37:36.861Z,14.90
2022-12-09T00:40:07.211Z,16.50
2022-12-09T00:42:36.425Z,15.07
2022-12-09T00:45:07.863Z,13.13
2022-12-09T00:47:36.920Z,14.20
2022-12-09T00:50:07.700Z,13.67
2022-12-09T00:52:36.408Z,13.53
2022-12-09T00:55:07.655Z,14.70
2022-12-09T00:57:36.108Z,13.17
2022-12-09T01:00:08.866Z,13.93
2022-12-09T01:02:38.173Z,14.23
2022-12-09T01:05:07.693Z,13.83
2022-12-09T01:07:37.834Z,14.30
2022-12-09T01:10:08.093Z,13.97
2022-12-09T01:12:36.788Z,13.80
2022-12-09T01:15:08.982Z,13.30
2022-12-09T01:17:38.314Z,13.90
2022-12-09T01:20:10.321Z,13.77
2022-12-09T01:22:39.612Z,13.67
2022-12-09T01:25:08.986Z,13.90
2022-12-09T01:27:37.514Z,12.50
2022-12-09T01:30:10.739Z,14.53
2022-12-09T01:32:39.489Z,12.77
2022-12-09T01:35:09.299Z,14.20
2022-12-09T01:37:38.972Z,14.10
2022-12-09T01:40:12.025Z,14.33
2022-12-09T01:42:40.903Z,13.97
2022-12-09T01:45:40.220Z,14.13
2022-12-09T01:48:14.223Z,13.63
2022-12-09T01:50:51.053Z,13.90
2022-12-09T01:53:21.678Z,13.50
2022-12-09T01:55:50.760Z,15.07
2022-12-09T01:58:20.213Z,14.80
2022-12-09T02:00:50.342Z,15.30
2022-12-09T02:03:22.407Z,14.73
2022-12-09T02:05:51.110Z,15.57
2022-12-09T02:08:21.242Z,14.97
2022-12-09T02:11:04.991Z,15.00
2022-12-09T02:13:49.703Z,14.13
2022-12-09T02:16:24.484Z,13.93
2022-12-09T02:19:01.256Z,13.10
2022-12-09T02:21:37.004Z,13.93
2022-12-09T02:24:15.908Z,13.70
2022-12-09T02:26:55.820Z,15.80
2022-12-09T02:29:44.585Z,13.50
2022-12-09T02:32:41.283Z,16.00
2022-12-09T02:35:21.909Z,15.60
2022-12-09T02:37:58.360Z,15.70
2022-12-09T02:40:35.732Z,14.80
2022-12-09T02:43:07.898Z,16.47
2022-12-09T02:45:38.834Z,15.63
2022-12-09T02:48:08.428Z,15.27
2022-12-09T02:50:41.734Z,16.20
2022-12-09T02:53:14.150Z,17.20
2022-12-09T02:55:46.316Z,16.30
2022-12-09T02:58:15.070Z,15.20
2022-12-09T03:00:44.202Z,15.63
2022-12-09T03:03:16.997Z,17.20
2022-12-09T03:05:53.531Z,17.00
2022-12-09T03:08:32.710Z,15.73
2022-12-09T03:11:05.072Z,15.67
2022-12-09T03:13:48.140Z,16.03
2022-12-09T03:16:25.465Z,16.57
2022-12-09T03:18:59.118Z,15.73
2022-12-09T03:21:31.094Z,16.70
2022-12-09T03:24:01.837Z,18.10
2022-12-09T03:26:35.164Z,18.97
2022-12-09T03:29:08.139Z,17.57
2022-12-09T03:31:38.316Z,16.10
2022-12-09T03:34:11.482Z,18.07
2022-12-09T03:36:43.745Z,17.40
2022-12-09T03:39:16.431Z,18.27
2022-12-09T03:41:47.651Z,16.43
2022-12-09T03:44:27.718Z,18.00
2022-12-09T03:46:56.432Z,18.37
2022-12-09T03:49:24.981Z,17.23
2022-12-09T03:52:02.369Z,18.50
2022-12-09T03:54:37.991Z,19.30
2022-12-09T03:57:07.035Z,19.43
2022-12-09T03:59:36.654Z,18.27
2022-12-09T04:02:07.195Z,17.97
2022-12-09T04:04:36.795Z,17.53
2022-12-09T04:07:06.976Z,20.73
2022-12-09T04:09:36.250Z,18.40
2022-12-09T04:12:05.015Z,18.33
2022-12-09T04:14:34.082Z,19.07
2022-12-09T04:17:02.683Z,18.80
2022-12-09T04:19:31.571Z,18.70
2022-12-09T04:22:01.890Z,18.87
2022-12-09T04:24:31.756Z,18.53
2022-12-09T04:27:00.185Z,16.93
2022-12-09T04:29:28.888Z,17.80
2022-12-09T04:31:57.867Z,18.70
2022-12-09T04:34:26.490Z,18.20
2022-12-09T04:36:55.060Z,16.80
2022-12-09T04:39:23.542Z,19.40
2022-12-09T04:41:53.308Z,16.90
2022-12-09T04:44:21.967Z,17.03
2022-12-09T04:46:50.871Z,18.40
2022-12-09T04:49:19.391Z,19.40
2022-12-09T04:51:49.160Z,16.57
2022-12-09T04:54:17.873Z,18.60
2022-12-09T04:56:46.293Z,18.77
2022-12-09T04:59:16.853Z,19.40
2022-12-09T05:01:45.699Z,17.73
2022-12-09T05:04:14.342Z,18.10
2022-12-09T05:06:43.421Z,18.37
2022-12-09T05:09:14.538Z,18.17
2022-12-09T05:11:43.260Z,18.93
2022-12-09T05:14:11.892Z,17.77
2022-12-09T05:16:42.192Z,17.27
2022-12-09T05:19:11.517Z,17.93
2022-12-09T05:21:40.622Z,20.90
2022-12-09T05:24:09.427Z,17.90
2022-12-09T05:26:38.467Z,19.17
2022-12-09T05:29:07.577Z,18.70
2022-12-09T05:31:36.476Z,20.00
2022-12-09T05:34:07.721Z,18.83
2022-12-09T05:36:36.537Z,18.37
2022-12-09T05:39:06.083Z,17.80
2022-12-09T05:41:34.903Z,18.57
2022-12-09T05:44:04.011Z,18.27
2022-12-09T05:46:32.856Z,18.53
2022-12-09T05:49:01.958Z,18.83
2022-12-09T05:51:32.925Z,18.60
2022-12-09T05:54:03.626Z,21.20
2022-12-09T05:56:33.548Z,18.87
2022-12-09T05:59:02.513Z,18.57
2022-12-09T06:01:31.381Z,18.60
2022-12-09T06:03:59.894Z,19.87
2022-12-09T06:06:30.348Z,20.60
2022-12-09T06:09:03.620Z,19.10
2022-12-09T06:11:33.578Z,18.30
2022-12-09T06:14:02.217Z,21.17
2022-12-09T06:16:30.783Z,20.27
2022-12-09T06:19:00.000Z,19.97
2022-12-09T06:21:28.602Z,20.00
2022-12-09T06:23:57.441Z,21.13
2022-12-09T06:26:30.721Z,19.80
2022-12-09T06:29:00.514Z,18.60
2022-12-09T06:31:30.180Z,18.27
2022-12-09T06:33:59.921Z,19.37
2022-12-09T06:36:31.264Z,19.73
2022-12-09T06:39:09.642Z,18.93
2022-12-09T06:41:43.139Z,20.13
2022-12-09T06:44:18.379Z,19.13
2022-12-09T06:46:50.357Z,20.40
2022-12-09T06:49:19.116Z,18.23
2022-12-09T06:51:47.876Z,17.80
2022-12-09T06:54:16.663Z,17.63
2022-12-09T06:56:46.706Z,19.23
2022-12-09T06:59:15.571Z,18.10
2022-12-09T07:01:44.859Z,21.37
2022-12-09T07:04:15.847Z,20.07
2022-12-09T07:06:46.457Z,19.40
2022-12-09T07:09:18.847Z,18.33
2022-12-09T07:11:49.653Z,18.20
2022-12-09T07:14:20.111Z,18.50
2022-12-09T07:16:49.165Z,19.53
2022-12-09T07:19:20.211Z,18.87
2022-12-09T07:21:49.507Z,18.80
2022-12-09T07:24:20.234Z,19.70
2022-12-09T07:26:50.821Z,21.40
2022-12-09T07:29:20.118Z,20.23
2022-12-09T07:31:49.559Z,18.47
2022-12-09T07:34:18.798Z,21.03
2022-12-09T07:36:48.199Z,21.27
2022-12-09T07:39:19.294Z,19.33
2022-12-09T07:41:53.274Z,18.53
2022-12-09T07:44:21.790Z,18.40
2022-12-09T07:46:50.696Z,19.80
2022-12-09T07:49:19.410Z,19.67
2022-12-09T07:51:48.375Z,19.83
2022-12-09T07:54:19.108Z,19.37
2022-12-09T07:56:50.020Z,19.43
2022-12-09T07:59:18.565Z,18.93
2022-12-09T08:01:47.282Z,20.07
2022-12-09T08:04:16.388Z,20.40
2022-12-09T08:06:44.952Z,17.87
2022-12-09T08:09:15.756Z,19.60
2022-12-09T08:11:44.689Z,20.00
2022-12-09T08:14:15.022Z,19.60
2022-12-09T08:16:44.668Z,19.73
2022-12-09T08:19:14.552Z,21.67
2022-12-09T08:21:45.504Z,21.70
2022-12-09T08:24:15.927Z,20.00
2022-12-09T08:26:44.596Z,20.60
2022-12-09T08:29:16.355Z,20.10
2022-12-09T08:31:45.604Z,20.57
2022-12-09T08:34:15.343Z,21.10
2022-12-09T08:36:45.080Z,23.80
2022-12-09T08:39:15.518Z,20.63
2022-12-09T08:41:44.875Z,22.13
2022-12-09T08:44:18.787Z,20.23
2022-12-09T08:46:49.545Z,21.13
2022-12-09T08:49:21.177Z,21.70
2022-12-09T08:51:52.640Z,19.07
2022-12-09T08:54:21.718Z,20.97
2022-12-09T08:56:55.227Z,19.93
2022-12-09T08:59:25.560Z,20.37
2022-12-09T09:01:54.507Z,18.23
2022-12-09T09:04:24.495Z,16.20
2022-12-09T09:06:54.738Z,18.07
2022-12-09T09:09:23.474Z,15.83
2022-12-09T09:11:52.574Z,17.07
2022-12-09T09:14:21.351Z,16.00
2022-12-09T09:16:52.042Z,16.57
2022-12-09T09:19:26.029Z,16.60
2022-12-09T09:21:56.261Z,15.40
2022-12-09T09:24:26.793Z,15.43
2022-12-09T09:26:56.735Z,15.93
2022-12-09T09:29:25.735Z,16.70
2022-12-09T09:31:56.521Z,16.63
2022-12-09T09:34:26.975Z,16.23
2022-12-09T09:36:57.837Z,16.33
2022-12-09T09:39:26.585Z,16.20
2022-12-09T09:42:01.968Z,16.50
2022-12-09T09:44:38.890Z,14.30
2022-12-09T09:47:19.856Z,13.70
2022-12-09T09:49:55.702Z,14.63
2022-12-09T09:52:28.394Z,16.27
2022-12-09T09:54:58.007Z,15.40
2022-12-09T09:57:36.752Z,14.83
2022-12-09T10:00:22.379Z,14.00
2022-12-09T10:03:01.346Z,13.57
2022-12-09T10:05:34.341Z,14.63
2022-12-09T10:08:27.079Z,13.20
2022-12-09T10:11:09.152Z,12.70
2022-12-09T10:13:48.568Z,11.70
2022-12-09T10:16:20.963Z,11.47
2022-12-09T10:19:08.901Z,12.33
2022-12-09T10:21:43.478Z,13.63
2022-12-09T10:24:25.021Z,13.53
2022-12-09T10:27:04.899Z,13.77
2022-12-09T10:29:56.065Z,12.30
2022-12-09T10:32:28.811Z,11.90
2022-12-09T10:34:59.259Z,11.50
2022-12-09T10:37:32.131Z,12.40
2022-12-09T10:40:18.157Z,11.30
2022-12-09T10:43:08.074Z,12.00
2022-12-09T10:46:15.845Z,11.40
2022-12-09T10:48:37.665Z,10.70
2022-12-09T10:51:14.163Z,13.03
2022-12-09T10:53:48.721Z,13.50
2022-12-09T10:56:24.356Z,13.90
2022-12-09T10:59:12.722Z,13.13
2022-12-09T11:01:51.993Z,13.50
2022-12-09T11:04:26.859Z,13.53
2022-12-09T11:07:01.103Z,14.67
2022-12-09T11:09:32.204Z,12.93
2022-12-09T11:12:02.269Z,12.40
2022-12-09T11:14:36.684Z,11.60
2022-12-09T11:17:18.745Z,11.57
2022-12-09T11:19:51.430Z,12.37
2022-12-09T11:22:39.580Z,11.60
2022-12-09T11:25:23.971Z,11.50
2022-12-09T11:27:56.272Z,12.20
2022-12-09T11:30:28.003Z,10.60
2022-12-09T11:33:03.329Z,12.63
2022-12-09T11:35:52.828Z,11.87
2022-12-09T11:38:33.217Z,11.33
2022-12-09T11:41:07.860Z,12.10
2022-12-09T11:43:41.276Z,12.67
2022-12-09T11:46:25.770Z,11.63
2022-12-09T11:48:58.396Z,13.07
2022-12-09T11:51:32.919Z,15.10
2022-12-09T11:54:10.345Z,12.03
2022-12-09T11:56:41.733Z,12.77
2022-12-09T11:59:16.466Z,12.87
2022-12-09T12:01:53.230Z,12.90
2022-12-09T12:04:28.582Z,13.43
2022-12-09T12:07:03.495Z,11.87
2022-12-09T12:09:40.825Z,12.10
2022-12-09T12:12:19.706Z,9.97
2022-12-09T12:14:48.314Z,9.83
2022-12-09T12:17:25.899Z,10.70
2022-12-09T12:19:56.387Z,10.87
2022-12-09T12:23:05.101Z,10.70
2022-12-09T12:25:48.124Z,12.50
2022-12-09T12:29:06.887Z,12.60
2022-12-09T12:32:14.554Z,11.23
2022-12-09T12:34:53.610Z,10.20
2022-12-09T12:37:39.951Z,10.80
2022-12-09T12:40:22.015Z,10.73
2022-12-09T12:43:28.573Z,8.83
2022-12-09T12:46:21.952Z,10.07
2022-12-09T12:49:24.308Z,10.73
2022-12-09T12:52:04.671Z,11.13
2022-12-09T12:54:45.503Z,10.57
2022-12-09T12:57:21.227Z,10.17
2022-12-09T13:00:00.026Z,10.27
2022-12-09T13:02:41.527Z,9.93
2022-12-09T13:05:19.962Z,11.27
2022-12-09T13:07:52.878Z,12.50
2022-12-09T13:10:31.824Z,11.07
2022-12-09T13:13:02.016Z,10.23
2022-12-09T13:15:34.956Z,11.97
2022-12-09T13:18:12.966Z,11.20
2022-12-09T13:20:47.849Z,11.10
2022-12-09T13:23:33.754Z,11.63
2022-12-09T13:26:19.120Z,11.47
2022-12-09T13:28:54.307Z,11.47
2022-12-09T13:31:29.974Z,10.83
2022-12-09T13:34:18.120Z,11.47
2022-12-09T13:36:48.920Z,11.50
2022-12-09T13:39:59.489Z,11.30
2022-12-09T13:42:56.470Z,10.97
2022-12-09T13:45:34.832Z,10.33
2022-12-09T13:48:46.773Z,10.83
2022-12-09T13:51:16.424Z,11.07
2022-12-09T13:54:03.793Z,10.33
2022-12-09T13:56:35.419Z,10.97
2022-12-09T13:59:43.621Z,10.80
2022-12-09T14:02:23.107Z,10.40
2022-12-09T14:05:06.985Z,10.37
2022-12-09T14:07:42.960Z,10.50
2022-12-09T14:10:40.776Z,10.40
2022-12-09T14:13:30.639Z,9.87
2022-12-09T14:16:19.409Z,9.57
2022-12-09T14:18:47.842Z,8.90
2022-12-09T14:21:33.704Z,8.67
2022-12-09T14:24:36.673Z,9.63
2022-12-09T14:27:17.842Z,8.10
2022-12-09T14:29:51.591Z,9.53
2022-12-09T14:32:24.231Z,9.40
2022-12-09T14:35:08.879Z,9.80
2022-12-09T14:38:10.373Z,9.07
2022-12-09T14:40:56.897Z,10.03
2022-12-09T14:44:08.569Z,9.70
2022-12-09T14:46:39.400Z,11.07
2022-12-09T14:49:16.984Z,10.03
2022-12-09T14:51:49.959Z,11.87
2022-12-09T14:54:28.376Z,11.00
2022-12-09T14:57:00.327Z,13.07
2022-12-09T14:59:31.697Z,14.20
2022-12-09T15:02:03.206Z,14.23
2022-12-09T15:04:35.632Z,12.80
2022-12-09T15:07:15.800Z,13.77
2022-12-09T15:09:55.798Z,13.50
2022-12-09T15:12:31.423Z,13.20
2022-12-09T15:15:06.411Z,13.10
2022-12-09T15:17:43.233Z,13.13
2022-12-09T15:20:27.721Z,13.20
2022-12-09T15:23:00.470Z,13.40
2022-12-09T15:25:30.900Z,12.27
2022-12-09T15:28:01.977Z,12.93
2022-12-09T15:30:35.168Z,12.57
2022-12-09T15:33:05.250Z,13.60
2022-12-09T15:35:35.323Z,13.20
2022-12-09T15:38:08.764Z,11.60
2022-12-09T15:40:59.215Z,12.57
2022-12-09T15:43:27.753Z,12.27
2022-12-09T15:45:56.535Z,14.17
2022-12-09T15:48:33.074Z,13.63
2022-12-09T15:51:06.575Z,13.50
2022-12-09T15:53:40.677Z,13.10
2022-12-09T15:56:15.920Z,13.17
2022-12-09T15:58:49.624Z,13.67
2022-12-09T16:01:23.846Z,13.00
2022-12-09T16:03:54.729Z,12.50
2022-12-09T16:06:28.555Z,13.03
2022-12-09T16:08:57.059Z,12.73
2022-12-09T16:11:42.494Z,14.70
2022-12-09T16:14:11.825Z,11.57
2022-12-09T16:16:48.333Z,12.63
2022-12-09T16:19:38.260Z,12.50
2022-12-09T16:22:09.759Z,11.30
2022-12-09T16:25:13.483Z,12.23
2022-12-09T16:27:38.258Z,11.80
2022-12-09T16:30:15.339Z,12.00
2022-12-09T16:32:47.926Z,13.10
2022-12-09T16:35:24.234Z,11.93
2022-12-09T16:38:17.332Z,12.50
2022-12-09T16:41:13.358Z,12.30
2022-12-09T16:43:58.522Z,11.50
2022-12-09T16:46:41.523Z,10.43
2022-12-09T16:49:10.223Z,11.37
2022-12-09T16:51:40.486Z,12.53
2022-12-09T16:54:20.579Z,10.83
2022-12-09T16:56:51.381Z,12.63
2022-12-09T16:59:21.370Z,12.10
2022-12-09T17:01:50.298Z,11.10
2022-12-09T17:04:23.482Z,12.13
2022-12-09T17:06:52.259Z,11.80
2022-12-09T17:09:21.035Z,12.20
2022-12-09T17:11:49.616Z,12.47
2022-12-09T17:14:19.947Z,11.70
2022-12-09T17:16:48.558Z,11.60
2022-12-09T17:19:19.570Z,11.87
2022-12-09T17:21:47.962Z,10.90
2022-12-09T17:24:17.248Z,12.40
2022-12-09T17:26:45.699Z,11.53
2022-12-09T17:29:14.719Z,12.40
2022-12-09T17:31:44.698Z,12.43
2022-12-09T17:34:13.165Z,14.80
2022-12-09T17:36:41.653Z,12.80
2022-12-09T17:39:12.744Z,12.60
2022-12-09T17:41:41.215Z,11.97
2022-12-09T17:44:10.333Z,12.90
2022-12-09T17:46:38.816Z,13.63
2022-12-09T17:49:08.613Z,13.73
2022-12-09T17:51:36.991Z,14.30
2022-12-09T17:54:06.026Z,15.10
2022-12-09T17:56:34.562Z,15.13
2022-12-09T17:59:07.400Z,14.13
2022-12-09T18:01:37.696Z,14.83
2022-12-09T18:04:10.489Z,13.77
2022-12-09T18:06:41.265Z,16.30
2022-12-09T18:09:12.543Z,14.40
2022-12-09T18:11:41.543Z,15.63
2022-12-09T18:14:11.098Z,15.90
2022-12-09T18:16:39.797Z,16.90
2022-12-09T18:19:15.312Z,16.27
2022-12-09T18:21:44.192Z,16.33
2022-12-09T18:24:12.825Z,16.20
2022-12-09T18:26:42.353Z,17.30
2022-12-09T18:29:11.921Z,16.80
2022-12-09T18:31:40.722Z,16.97
2022-12-09T18:34:10.618Z,16.90
2022-12-09T18:36:39.436Z,15.73
2022-12-09T18:39:08.497Z,15.87
2022-12-09T18:41:37.049Z,17.77
2022-12-09T18:44:08.242Z,16.80
2022-12-09T18:46:39.337Z,15.67
2022-12-09T18:49:13.074Z,17.40
2022-12-09T18:51:43.118Z,17.70
2022-12-09T18:54:17.344Z,17.50
2022-12-09T18:56:46.632Z,17.30
2022-12-09T18:59:15.208Z,15.37
2022-12-09T19:01:46.330Z,18.37
2022-12-09T19:04:19.403Z,17.67
2022-12-09T19:06:50.474Z,17.33
2022-12-09T19:09:21.336Z,19.50
2022-12-09T19:11:51.574Z,17.93
2022-12-09T19:14:23.123Z,17.90
2022-12-09T19:16:52.623Z,19.20
2022-12-09T19:19:25.560Z,18.57
2022-12-09T19:21:55.215Z,19.43
2022-12-09T19:24:26.543Z,16.90
2022-12-09T19:26:57.922Z,19.90
2022-12-09T19:29:28.092Z,17.80
2022-12-09T19:31:58.413Z,18.23
2022-12-09T19:34:30.520Z,20.43
2022-12-09T19:37:01.696Z,20.37
2022-12-09T19:39:34.052Z,20.67
2022-12-09T19:42:05.085Z,19.20
2022-12-09T19:45:00.345Z,20.73
2022-12-09T19:47:23.849Z,18.17
2022-12-09T19:49:53.635Z,20.00
2022-12-09T19:52:22.140Z,21.70
2022-12-09T19:54:50.652Z,21.03
2022-12-09T19:57:19.156Z,20.67
2022-12-09T19:59:48.233Z,20.13
2022-12-09T20:02:16.724Z,19.03
2022-12-09T20:04:50.195Z,18.70
2022-12-09T20:07:21.083Z,18.90
2022-12-09T20:09:49.987Z,19.47
2022-12-09T20:12:18.460Z,20.13
2022-12-09T20:14:47.046Z,20.97
2022-12-09T20:17:16.775Z,19.00
2022-12-09T20:19:45.579Z,18.80
2022-12-09T20:22:14.063Z,19.80
2022-12-09T20:24:44.352Z,16.67
2022-12-09T20:27:13.040Z,18.80
2022-12-09T20:29:41.478Z,18.97
2022-12-09T20:32:10.774Z,17.47
2022-12-09T20:34:39.676Z,18.57
2022-12-09T20:37:08.494Z,18.70
2022-12-09T20:39:37.103Z,19.90
2022-12-09T20:42:07.299Z,19.13
2022-12-09T20:44:35.711Z,20.83
2022-12-09T20:47:04.207Z,18.17
2022-12-09T20:49:32.676Z,18.10
2022-12-09T20:52:01.179Z,17.90
2022-12-09T20:54:29.782Z,17.93
2022-12-09T20:56:58.178Z,19.20
2022-12-09T20:59:28.509Z,18.70
2022-12-09T21:01:57.003Z,17.87
2022-12-09T21:04:25.528Z,18.47
2022-12-09T21:06:54.101Z,19.30
2022-12-09T21:09:27.216Z,17.07
2022-12-09T21:11:55.703Z,19.07
2022-12-09T21:14:28.120Z,18.40
2022-12-09T21:17:03.028Z,18.53
2022-12-09T21:19:32.545Z,17.73
2022-12-09T21:22:01.050Z,18.37
2022-12-09T21:24:29.558Z,17.97
2022-12-09T21:26:58.153Z,18.03
2022-12-09T21:29:31.510Z,20.50
2022-12-09T21:32:02.684Z,20.07
2022-12-09T21:34:31.695Z,17.43
2022-12-09T21:37:00.398Z,16.27
2022-12-09T21:39:29.325Z,19.50
2022-12-09T21:41:57.759Z,18.80
2022-12-09T21:44:27.276Z,18.07
2022-12-09T21:46:55.763Z,18.30
2022-12-09T21:49:25.991Z,19.53
2022-12-09T21:51:54.409Z,18.30
2022-12-09T21:54:22.848Z,18.83
2022-12-09T21:56:51.290Z,20.07
2022-12-09T21:59:19.905Z,21.07
2022-12-09T22:01:48.416Z,19.33
2022-12-09T22:04:17.847Z,20.73
2022-12-09T22:06:50.039Z,17.90
2022-12-09T22:09:21.232Z,19.20
2022-12-09T22:11:49.948Z,19.57
2022-12-09T22:14:18.440Z,20.00
2022-12-09T22:16:47.594Z,18.77
2022-12-09T22:19:18.618Z,18.13
2022-12-09T22:21:49.729Z,20.00
2022-12-09T22:24:19.339Z,20.63
2022-12-09T22:26:48.558Z,20.47
2022-12-09T22:29:18.783Z,20.00
2022-12-09T22:31:47.977Z,19.07
2022-12-09T22:34:19.871Z,19.87
2022-12-09T22:36:50.617Z,21.00
2022-12-09T22:39:22.758Z,21.67
2022-12-09T22:41:51.876Z,19.60
2022-12-09T22:44:21.298Z,21.90
2022-12-09T22:46:50.083Z,20.90
2022-12-09T22:49:19.795Z,20.17
2022-12-09T22:51:49.740Z,21.90
2022-12-09T22:54:18.540Z,21.40
2022-12-09T22:56:47.059Z,19.80
2022-12-09T22:59:16.093Z,19.10
2022-12-09T23:01:47.491Z,20.13
2022-12-09T23:04:19.071Z,19.47
2022-12-09T23:06:47.527Z,19.43
2022-12-09T23:09:21.049Z,20.70
2022-12-09T23:11:50.527Z,21.33
2022-12-09T23:14:19.875Z,22.70
2022-12-09T23:16:48.464Z,20.73
2022-12-09T23:19:16.815Z,20.50
2022-12-09T23:21:45.256Z,19.30
2022-12-09T23:24:24.122Z,21.20
2022-12-09T23:26:55.393Z,19.40
2022-12-09T23:29:23.957Z,21.13
2022-12-09T23:31:52.427Z,18.73
2022-12-09T23:34:21.268Z,20.27
2022-12-09T23:36:49.696Z,20.43
2022-12-09T23:39:20.687Z,18.20
2022-12-09T23:41:49.731Z,18.50
2022-12-09T23:44:20.316Z,19.17
2022-12-09T23:46:49.592Z,18.57
2022-12-09T23:49:18.680Z,19.40
2022-12-09T23:51:48.069Z,17.50
2022-12-09T23:54:19.434Z,18.93
2022-12-09T23:56:50.710Z,18.23
2022-12-09T23:59:22.405Z,19.53
